Portada
METAR-TAF:

METAR-TAF

Aeropuertos :

Aeropuerto Internacional Sierra Maestra

Manzanillo, Cuba

latitud: 20-20N, longitud: 077-07W, altitud: 60 m

METAR: falta

Hora: 10:04 (14:04 UTC)

Pronóstico

El informe se hizo hace 3 horas y 4 minutos, a las 11:00 UTC
Pronóstico válido del 23 a las 12 UTC al 23 a las 24 UTC
Viento 5 kt con dirección variable
Visibilidad: 9000 m
Nubes dispersas a una altura de 2000 ft
Temporalmente
del 23 a las 12 UTC al 23 a las 13 UTC
Visibilidad: 5000 m
neblina
Temporalmente
del 23 a las 15 UTC al 23 a las 20 UTC
Viento 10 kt del noreste
Temporalmente
del 23 a las 21 UTC al 23 a las 24 UTC
Nubes dispersas a una altura de 1800 ft, Cumulus congestus.
Cielo nuboso a una altura de 2000 ft

TAF: MUMZ 231100Z 2312/2324 VRB05KT 9000 SCT020 TEMPO 2312/2313 5000 BR TEMPO 2315/2320 04010KT TEMPO 2321/2324 SCT018TCU BKN020

Observaciones y pronósticos meteorológicos de más de 4000 aeropuertos (mensajes METAR y TAF).

Los puntos amarillos y rojos representan las estaciones disponibles.

Ponga el ratón en el punto deseado para ver el nombre de la estación.

Haga clic para ver las observaciones y los pronósticos meteorológicos.

Para cambiar el mapa : haga clic en los botones verdes con una cruz de color negro para hacer un zoom, en el botón verde con un guión para alejar o en las flechas verdes para mapas adyacentes.


METAR-TAF: